Time;durP1;ratioP1;P1;durP2;ratioP2;P2;SDS_P1;SDS_P2;PMS_P1;PMS_P2;Temp;Humidity;BMP_temperature;BMP_pressure;BME280_temperature;BME280_humidity;BME280_pressure;Samples;Min_cycle;Max_cycle;Signal;HPM_P1;HPM_P2
2023/04/24 00:01:16;;;;;;;3.47;2.22;;;;;;;;;;5053497;28;20041;-69
2023/04/24 00:03:42;;;;;;;3.15;1.90;;;;;;;;;;5031164;28;20393;-69
2023/04/24 00:06:09;;;;;;;2.92;1.88;;;;;;;;;;5052777;28;20041;-68
2023/04/24 00:08:35;;;;;;;2.58;1.85;;;;;;;;;;5026345;28;20040;-69
2023/04/24 00:11:02;;;;;;;3.60;2.20;;;;;;;;;;5056220;28;20493;-69
2023/04/24 00:13:28;;;;;;;3.10;1.90;;;;;;;;;;5050781;28;20048;-69
2023/04/24 00:15:54;;;;;;;3.03;2.10;;;;;;;;;;5031723;28;20044;-69
2023/04/24 00:18:21;;;;;;;3.65;1.98;;;;;;;;;;5033359;28;20045;-69
2023/04/24 00:20:47;;;;;;;3.00;1.95;;;;;;;;;;5001423;28;20085;-68
2023/04/24 00:23:13;;;;;;;2.80;2.03;;;;;;;;;;5016854;28;20045;-68
2023/04/24 00:25:39;;;;;;;4.32;2.40;;;;;;;;;;5048671;28;20041;-68
2023/04/24 00:28:06;;;;;;;3.08;2.40;;;;;;;;;;5031708;28;20132;-68
2023/04/24 00:30:32;;;;;;;3.78;2.45;;;;;;;;;;5050094;28;20515;-69
2023/04/24 00:32:58;;;;;;;4.00;2.70;;;;;;;;;;5050120;28;20095;-70
2023/04/24 00:35:24;;;;;;;5.32;2.42;;;;;;;;;;5032858;28;20781;-69
2023/04/24 00:37:50;;;;;;;2.92;1.90;;;;;;;;;;5050789;28;20060;-69
2023/04/24 00:40:16;;;;;;;3.20;2.45;;;;;;;;;;5001275;28;20086;-69
2023/04/24 00:42:42;;;;;;;3.70;2.28;;;;;;;;;;5034241;28;20045;-68
2023/04/24 00:45:08;;;;;;;4.25;2.67;;;;;;;;;;5030275;28;20178;-68
2023/04/24 00:47:34;;;;;;;4.90;2.85;;;;;;;;;;5049611;28;20053;-69
2023/04/24 00:50:07;;;;;;;3.58;2.72;;;;;;;;;;5054427;28;20044;-68
2023/04/24 00:52:33;;;;;;;4.25;2.50;;;;;;;;;;5024265;28;20033;-69
2023/04/24 00:54:59;;;;;;;3.80;2.20;;;;;;;;;;5037991;28;20138;-68
2023/04/24 00:57:25;;;;;;;3.47;2.60;;;;;;;;;;5026660;28;20068;-69
2023/04/24 00:59:52;;;;;;;6.55;3.08;;;;;;;;;;5008319;28;20165;-68
2023/04/24 01:02:18;;;;;;;4.75;2.88;;;;;;;;;;5049731;28;20037;-68
2023/04/24 01:04:44;;;;;;;5.82;3.63;;;;;;;;;;5031946;28;20041;-69
2023/04/24 01:07:11;;;;;;;4.78;3.28;;;;;;;;;;5032369;28;20045;-69
2023/04/24 01:09:47;;;;;;;4.10;3.22;;;;;;;;;;5031924;28;20047;-70
2023/04/24 01:12:13;;;;;;;5.30;3.40;;;;;;;;;;5048787;28;20053;-70
2023/04/24 01:14:39;;;;;;;7.13;4.80;;;;;;;;;;5045782;28;20068;-70
2023/04/24 01:17:05;;;;;;;4.65;3.50;;;;;;;;;;5030167;28;20042;-70
2023/04/24 01:19:31;;;;;;;4.90;3.85;;;;;;;;;;5049104;28;20045;-68
2023/04/24 01:21:59;;;;;;;4.88;4.07;;;;;;;;;;5032510;28;20041;-67
2023/04/24 01:24:25;;;;;;;6.65;3.85;;;;;;;;;;5015034;28;20028;-69
2023/04/24 01:26:51;;;;;;;4.38;3.53;;;;;;;;;;5032521;28;20446;-69
2023/04/24 01:29:17;;;;;;;6.10;5.03;;;;;;;;;;5050242;28;20163;-70
2023/04/24 01:31:43;;;;;;;5.10;4.05;;;;;;;;;;5050342;28;20500;-68
2023/04/24 01:34:09;;;;;;;5.25;3.92;;;;;;;;;;5050848;28;20396;-68
2023/04/24 01:36:36;;;;;;;5.80;4.60;;;;;;;;;;5036157;28;20052;-69
2023/04/24 01:39:03;;;;;;;5.93;4.75;;;;;;;;;;5058657;28;20494;-70
2023/04/24 01:41:30;;;;;;;7.18;5.63;;;;;;;;;;5019706;28;20440;-68
2023/04/24 01:43:57;;;;;;;6.85;4.75;;;;;;;;;;5052293;28;20128;-69
2023/04/24 01:46:24;;;;;;;7.68;5.40;;;;;;;;;;5053496;28;20052;-70
2023/04/24 01:48:51;;;;;;;7.35;5.90;;;;;;;;;;5024307;28;20110;-69
2023/04/24 01:51:17;;;;;;;8.10;6.07;;;;;;;;;;5052435;28;20029;-69
2023/04/24 01:53:43;;;;;;;7.43;5.78;;;;;;;;;;5054161;28;20094;-68
2023/04/24 01:56:09;;;;;;;7.22;5.90;;;;;;;;;;5054198;28;20048;-69
2023/04/24 01:58:35;;;;;;;9.43;6.22;;;;;;;;;;5053573;28;20029;-69
2023/04/24 02:01:01;;;;;;;7.47;5.80;;;;;;;;;;5038836;28;20517;-69
2023/04/24 02:03:28;;;;;;;8.02;6.38;;;;;;;;;;5037199;28;20371;-69
2023/04/24 02:05:54;;;;;;;9.10;6.90;;;;;;;;;;5044101;28;20496;-68
2023/04/24 02:08:20;;;;;;;9.40;7.45;;;;;;;;;;5063555;28;20041;-69
2023/04/24 02:10:46;;;;;;;8.98;7.28;;;;;;;;;;5039606;28;20048;-69
2023/04/24 02:13:12;;;;;;;11.55;7.60;;;;;;;;;;5034286;28;20393;-69
2023/04/24 02:15:38;;;;;;;9.52;7.80;;;;;;;;;;5052794;28;20059;-69
2023/04/24 02:18:04;;;;;;;14.30;9.32;;;;;;;;;;5053978;28;20472;-69
2023/04/24 02:20:30;;;;;;;12.25;8.70;;;;;;;;;;5035338;28;20048;-70
2023/04/24 02:22:56;;;;;;;12.20;9.10;;;;;;;;;;5035320;28;20134;-68
2023/04/24 02:25:22;;;;;;;13.70;9.75;;;;;;;;;;5052646;28;20040;-69
2023/04/24 02:27:48;;;;;;;14.75;10.05;;;;;;;;;;5053922;28;20090;-70
2023/04/24 02:30:14;;;;;;;13.48;9.80;;;;;;;;;;5035881;28;20037;-70
2023/04/24 02:32:40;;;;;;;15.55;11.27;;;;;;;;;;5053470;28;20048;-68
2023/04/24 02:35:06;;;;;;;15.60;10.40;;;;;;;;;;5053259;28;20052;-69
2023/04/24 02:37:34;;;;;;;14.27;11.10;;;;;;;;;;5028882;28;20041;-69
2023/04/24 02:40:00;;;;;;;15.68;10.18;;;;;;;;;;5053135;28;20049;-68
2023/04/24 02:42:26;;;;;;;16.00;11.32;;;;;;;;;;5035870;28;20044;-69
2023/04/24 02:44:52;;;;;;;18.30;11.10;;;;;;;;;;5051550;28;20492;-69
2023/04/24 02:47:18;;;;;;;16.20;11.18;;;;;;;;;;5054184;28;20072;-69
2023/04/24 02:49:44;;;;;;;15.07;10.85;;;;;;;;;;5056090;28;20555;-68
2023/04/24 02:52:10;;;;;;;14.63;10.88;;;;;;;;;;5052550;28;20102;-69
2023/04/24 02:54:36;;;;;;;13.98;9.55;;;;;;;;;;5052996;28;20465;-69
2023/04/24 02:57:02;;;;;;;13.95;9.90;;;;;;;;;;5035647;28;20523;-69
2023/04/24 02:59:29;;;;;;;13.55;10.63;;;;;;;;;;5019221;28;20052;-68
2023/04/24 03:01:55;;;;;;;15.75;10.65;;;;;;;;;;5018318;28;20484;-69
2023/04/24 03:04:22;;;;;;;12.30;9.85;;;;;;;;;;5049725;28;20041;-69
2023/04/24 03:06:48;;;;;;;13.48;10.35;;;;;;;;;;5029642;28;20481;-69
2023/04/24 03:09:14;;;;;;;14.35;10.68;;;;;;;;;;5051720;28;20041;-69
2023/04/24 03:11:40;;;;;;;15.02;11.18;;;;;;;;;;5052262;28;20045;-69
2023/04/24 03:14:06;;;;;;;17.58;11.13;;;;;;;;;;5047035;28;20481;-69
2023/04/24 03:16:32;;;;;;;15.48;11.68;;;;;;;;;;5047229;28;20406;-69
2023/04/24 03:19:06;;;;;;;15.90;11.77;;;;;;;;;;5076531;22;20064;-68
2023/04/24 03:21:32;;;;;;;15.82;11.68;;;;;;;;;;5036077;22;20084;-68
2023/04/24 03:23:58;;;;;;;15.60;11.68;;;;;;;;;;5026840;28;20493;-69
2023/04/24 03:26:24;;;;;;;18.77;13.45;;;;;;;;;;5055485;28;20072;-69
2023/04/24 03:28:50;;;;;;;17.25;12.40;;;;;;;;;;5069129;28;20435;-69
2023/04/24 03:31:17;;;;;;;18.65;12.35;;;;;;;;;;5046336;28;20148;-69
2023/04/24 03:33:43;;;;;;;18.00;13.27;;;;;;;;;;5054315;28;20517;-70
2023/04/24 03:36:09;;;;;;;17.63;12.85;;;;;;;;;;5042053;28;20091;-70
2023/04/24 03:38:35;;;;;;;17.70;12.50;;;;;;;;;;5044522;28;20402;-70
2023/04/24 03:41:01;;;;;;;20.17;12.75;;;;;;;;;;5049642;28;20041;-70
2023/04/24 03:43:27;;;;;;;17.40;11.18;;;;;;;;;;5026487;28;20045;-69
2023/04/24 03:45:53;;;;;;;12.05;7.97;;;;;;;;;;5050242;28;20073;-70
2023/04/24 03:48:19;;;;;;;9.63;6.65;;;;;;;;;;5048888;28;20056;-70
2023/04/24 03:50:45;;;;;;;10.13;5.85;;;;;;;;;;5055720;28;20045;-71
2023/04/24 03:53:11;;;;;;;8.27;5.63;;;;;;;;;;5059793;28;20040;-70
2023/04/24 03:55:38;;;;;;;7.75;5.35;;;;;;;;;;5064018;28;20505;-70
2023/04/24 03:58:04;;;;;;;6.22;4.35;;;;;;;;;;5050206;28;20055;-70
2023/04/24 04:00:31;;;;;;;5.60;3.88;;;;;;;;;;5063250;28;20041;-70
2023/04/24 04:02:57;;;;;;;7.18;4.40;;;;;;;;;;5021289;28;20053;-70
2023/04/24 04:05:23;;;;;;;7.25;4.93;;;;;;;;;;5040768;28;20048;-71
2023/04/24 04:07:49;;;;;;;7.40;5.38;;;;;;;;;;5048984;28;20447;-70
2023/04/24 04:10:17;;;;;;;8.40;5.95;;;;;;;;;;5041386;28;20045;-69
2023/04/24 04:12:43;;;;;;;9.63;5.40;;;;;;;;;;5031925;28;20057;-71
2023/04/24 04:15:09;;;;;;;10.77;6.10;;;;;;;;;;5050839;28;20049;-69
2023/04/24 04:17:35;;;;;;;9.65;6.47;;;;;;;;;;5046017;28;20131;-71
2023/04/24 04:20:04;;;;;;;11.02;6.65;;;;;;;;;;5051022;28;20057;-71
2023/04/24 04:22:30;;;;;;;10.23;7.05;;;;;;;;;;5029537;28;20057;-69
2023/04/24 04:24:57;;;;;;;12.73;7.95;;;;;;;;;;5050764;28;20055;-71
2023/04/24 04:27:23;;;;;;;13.48;7.78;;;;;;;;;;5051733;28;20541;-69
2023/04/24 04:29:49;;;;;;;16.80;10.45;;;;;;;;;;5049797;28;20119;-70
2023/04/24 04:32:15;;;;;;;16.55;10.10;;;;;;;;;;5042950;28;20049;-70
2023/04/24 04:34:42;;;;;;;16.90;10.35;;;;;;;;;;5049262;28;20481;-70
2023/04/24 04:37:10;;;;;;;10.93;6.20;;;;;;;;;;5050722;28;20053;-68
2023/04/24 04:39:36;;;;;;;12.27;7.90;;;;;;;;;;5047230;28;20045;-70
2023/04/24 04:42:02;;;;;;;14.43;7.38;;;;;;;;;;5049599;28;20041;-70
2023/04/24 04:44:28;;;;;;;11.57;7.25;;;;;;;;;;5049703;28;20040;-68
2023/04/24 04:46:56;;;;;;;12.30;6.38;;;;;;;;;;5045258;28;20549;-69
2023/04/24 04:49:23;;;;;;;11.13;6.53;;;;;;;;;;5051616;28;20052;-68
2023/04/24 04:51:51;;;;;;;12.13;7.03;;;;;;;;;;5042993;28;20049;-70
2023/04/24 04:54:17;;;;;;;10.68;6.82;;;;;;;;;;5040326;28;20182;-70
2023/04/24 04:56:43;;;;;;;13.50;7.43;;;;;;;;;;5055178;28;20459;-68
2023/04/24 04:59:10;;;;;;;12.98;7.63;;;;;;;;;;5067880;28;20045;-63
2023/04/24 05:01:36;;;;;;;11.32;7.18;;;;;;;;;;5049040;28;20053;-69
2023/04/24 05:04:02;;;;;;;9.52;5.30;;;;;;;;;;5057473;28;20056;-68
2023/04/24 05:06:28;;;;;;;10.18;6.43;;;;;;;;;;5046436;28;20047;-67
2023/04/24 05:08:57;;;;;;;9.40;4.97;;;;;;;;;;5054748;28;20048;-69
2023/04/24 05:11:23;;;;;;;8.45;4.90;;;;;;;;;;5053155;28;20037;-68
2023/04/24 05:13:49;;;;;;;6.13;3.85;;;;;;;;;;5045124;28;20037;-69
2023/04/24 05:16:15;;;;;;;5.30;3.15;;;;;;;;;;5057436;28;20052;-69
2023/04/24 05:18:41;;;;;;;4.30;2.67;;;;;;;;;;5043336;28;20529;-69
2023/04/24 05:21:08;;;;;;;5.53;2.22;;;;;;;;;;5050665;28;20145;-70
2023/04/24 05:23:34;;;;;;;5.32;2.80;;;;;;;;;;5044515;28;20060;-68
2023/04/24 05:25:59;;;;;;;6.82;2.30;;;;;;;;;;5040313;28;20044;-69
2023/04/24 05:28:28;;;;;;;5.47;2.55;;;;;;;;;;5056216;28;20040;-69
2023/04/24 05:30:55;;;;;;;5.82;2.45;;;;;;;;;;5055520;28;20056;-68
2023/04/24 05:33:22;;;;;;;4.05;2.35;;;;;;;;;;5055179;28;20082;-70
2023/04/24 05:35:48;;;;;;;5.40;2.22;;;;;;;;;;5053910;28;20048;-70
2023/04/24 05:38:17;;;;;;;4.25;2.67;;;;;;;;;;5038981;28;20059;-70
2023/04/24 05:40:43;;;;;;;6.30;3.63;;;;;;;;;;5060362;28;20071;-68
2023/04/24 05:43:09;;;;;;;6.75;3.72;;;;;;;;;;5059141;28;20434;-68
2023/04/24 05:45:35;;;;;;;9.43;4.95;;;;;;;;;;5054249;28;20044;-70
2023/04/24 05:48:02;;;;;;;7.60;3.60;;;;;;;;;;5053443;28;20051;-70
2023/04/24 05:50:28;;;;;;;7.13;4.13;;;;;;;;;;5059427;28;20095;-68
2023/04/24 05:52:54;;;;;;;8.32;4.20;;;;;;;;;;5052025;28;20049;-69
2023/04/24 05:55:20;;;;;;;7.40;3.88;;;;;;;;;;5047554;28;20146;-69
2023/04/24 05:57:47;;;;;;;7.55;4.00;;;;;;;;;;5052179;28;20129;-69
2023/04/24 06:00:13;;;;;;;8.05;3.95;;;;;;;;;;5044527;28;20041;-70
2023/04/24 06:02:39;;;;;;;7.50;3.72;;;;;;;;;;5040609;28;20080;-69
2023/04/24 06:05:05;;;;;;;9.95;3.78;;;;;;;;;;5038873;28;20496;-70
2023/04/24 06:07:32;;;;;;;8.70;4.57;;;;;;;;;;5042781;28;20045;-69
2023/04/24 06:09:58;;;;;;;7.18;5.05;;;;;;;;;;5043889;28;20048;-70
2023/04/24 06:12:24;;;;;;;13.73;5.57;;;;;;;;;;5053804;28;20049;-69
2023/04/24 06:14:50;;;;;;;9.15;4.53;;;;;;;;;;5047775;28;20040;-68
2023/04/24 06:17:16;;;;;;;10.57;5.45;;;;;;;;;;5041520;28;20486;-70
2023/04/24 06:19:42;;;;;;;12.57;5.70;;;;;;;;;;5028546;28;20096;-69
2023/04/24 06:22:08;;;;;;;8.38;5.03;;;;;;;;;;5035212;28;20049;-69
2023/04/24 06:24:34;;;;;;;7.78;4.45;;;;;;;;;;5044886;28;20212;-69
2023/04/24 06:27:01;;;;;;;7.72;4.53;;;;;;;;;;5053494;28;20049;-69
2023/04/24 06:29:27;;;;;;;7.45;4.25;;;;;;;;;;5020948;28;20048;-70
2023/04/24 06:31:53;;;;;;;6.70;4.20;;;;;;;;;;5063287;28;20068;-68
2023/04/24 06:34:19;;;;;;;7.55;4.30;;;;;;;;;;5010429;28;20045;-69
2023/04/24 06:36:45;;;;;;;4.43;2.90;;;;;;;;;;5029276;28;20041;-70
2023/04/24 06:39:12;;;;;;;5.70;2.67;;;;;;;;;;5035888;28;20049;-66
2023/04/24 06:41:39;;;;;;;4.07;2.03;;;;;;;;;;5062544;28;20052;-69
2023/04/24 06:44:05;;;;;;;4.35;1.90;;;;;;;;;;5068285;28;20077;-70
2023/04/24 06:46:31;;;;;;;4.38;1.85;;;;;;;;;;5039028;28;20045;-69
2023/04/24 06:48:57;;;;;;;4.15;2.03;;;;;;;;;;5054272;28;20048;-68
2023/04/24 06:51:25;;;;;;;3.28;1.63;;;;;;;;;;5038430;28;20156;-69
2023/04/24 06:53:52;;;;;;;3.50;1.38;;;;;;;;;;5059286;28;20053;-69
2023/04/24 06:56:18;;;;;;;2.97;1.38;;;;;;;;;;5062532;28;20045;-68
2023/04/24 06:58:45;;;;;;;4.70;1.67;;;;;;;;;;5051970;28;20037;-70
2023/04/24 07:01:11;;;;;;;8.15;2.20;;;;;;;;;;5022568;28;20489;-68
2023/04/24 07:03:37;;;;;;;8.55;1.83;;;;;;;;;;5038568;28;20191;-68
2023/04/24 07:06:03;;;;;;;8.32;3.00;;;;;;;;;;5034877;28;20132;-70
2023/04/24 07:08:33;;;;;;;5.70;2.63;;;;;;;;;;5036357;28;20049;-71
2023/04/24 07:10:59;;;;;;;11.80;3.50;;;;;;;;;;5041357;28;20143;-69
2023/04/24 07:13:26;;;;;;;14.18;5.82;;;;;;;;;;5052910;28;20045;-71
2023/04/24 07:15:53;;;;;;;14.63;5.80;;;;;;;;;;5032831;28;20053;-71
2023/04/24 07:18:21;;;;;;;17.00;8.63;;;;;;;;;;5035259;28;20041;-71
2023/04/24 07:20:47;;;;;;;18.15;9.25;;;;;;;;;;5025977;28;20059;-71
2023/04/24 07:23:13;;;;;;;17.95;8.68;;;;;;;;;;5031936;28;20049;-70
2023/04/24 07:25:39;;;;;;;23.40;10.25;;;;;;;;;;5031811;28;20042;-70
2023/04/24 07:28:05;;;;;;;25.33;12.68;;;;;;;;;;5034738;28;20386;-71
2023/04/24 07:30:32;;;;;;;29.63;12.20;;;;;;;;;;4999408;28;20371;-73
2023/04/24 07:32:59;;;;;;;29.45;13.82;;;;;;;;;;5019986;28;20053;-70
2023/04/24 07:35:25;;;;;;;28.13;12.50;;;;;;;;;;4997478;28;20041;-71
2023/04/24 07:37:52;;;;;;;21.98;12.10;;;;;;;;;;5001735;28;20042;-71
2023/04/24 07:40:18;;;;;;;25.55;11.93;;;;;;;;;;5028551;28;20095;-71
2023/04/24 07:42:44;;;;;;;23.50;11.32;;;;;;;;;;5017506;28;20132;-71
2023/04/24 07:45:10;;;;;;;29.25;14.07;;;;;;;;;;5030936;28;20056;-70
2023/04/24 07:47:38;;;;;;;24.48;11.30;;;;;;;;;;5034719;28;20048;-71
2023/04/24 07:50:04;;;;;;;23.88;12.02;;;;;;;;;;5015114;28;20045;-70
2023/04/24 07:52:30;;;;;;;30.77;13.80;;;;;;;;;;5013704;28;20209;-71
2023/04/24 07:55:00;;;;;;;23.73;11.32;;;;;;;;;;5031985;28;20076;-72
2023/04/24 07:57:26;;;;;;;20.75;12.35;;;;;;;;;;5031154;28;20041;-71
2023/04/24 07:59:52;;;;;;;24.88;11.50;;;;;;;;;;5014089;28;20080;-71
2023/04/24 08:02:18;;;;;;;22.90;9.70;;;;;;;;;;5031035;28;20088;-70
2023/04/24 08:04:45;;;;;;;18.90;10.10;;;;;;;;;;5032363;28;20072;-70
2023/04/24 08:07:12;;;;;;;22.40;11.70;;;;;;;;;;4991123;28;20045;-64
2023/04/24 08:09:38;;;;;;;23.73;11.52;;;;;;;;;;5000940;28;20053;-70
2023/04/24 08:12:04;;;;;;;25.50;12.05;;;;;;;;;;5006042;28;20398;-70
2023/04/24 08:14:31;;;;;;;17.88;10.73;;;;;;;;;;5015224;28;20045;-70
2023/04/24 08:16:57;;;;;;;21.55;11.38;;;;;;;;;;5014574;28;20132;-70
2023/04/24 08:19:23;;;;;;;17.92;9.65;;;;;;;;;;4998342;28;20064;-70
2023/04/24 08:21:49;;;;;;;16.13;9.25;;;;;;;;;;5056467;28;20048;-70
2023/04/24 08:24:15;;;;;;;19.17;7.35;;;;;;;;;;5068580;28;20040;-70
2023/04/24 08:26:41;;;;;;;16.02;8.80;;;;;;;;;;5036971;28;20464;-69
2023/04/24 08:29:07;;;;;;;16.35;7.95;;;;;;;;;;5038117;28;20052;-70
2023/04/24 08:31:33;;;;;;;14.35;7.82;;;;;;;;;;5071300;28;20040;-69
2023/04/24 08:33:59;;;;;;;10.95;5.32;;;;;;;;;;5072281;28;20044;-68
2023/04/24 08:36:26;;;;;;;13.70;7.70;;;;;;;;;;5071923;28;20040;-70
2023/04/24 08:38:52;;;;;;;15.82;7.03;;;;;;;;;;5053462;28;20484;-68
2023/04/24 08:41:19;;;;;;;15.63;6.93;;;;;;;;;;5037615;28;20170;-69
2023/04/24 08:43:46;;;;;;;14.40;7.32;;;;;;;;;;5037761;28;20067;-69
2023/04/24 08:46:13;;;;;;;14.73;6.90;;;;;;;;;;5053834;28;20112;-68
2023/04/24 08:48:40;;;;;;;16.38;6.60;;;;;;;;;;5071399;28;20380;-69
2023/04/24 08:51:10;;;;;;;12.73;6.35;;;;;;;;;;5069738;28;20558;-70
2023/04/24 08:53:36;;;;;;;12.55;6.20;;;;;;;;;;5071299;28;20123;-69
2023/04/24 08:56:03;;;;;;;13.63;5.88;;;;;;;;;;5071534;28;20408;-69
2023/04/24 08:58:30;;;;;;;13.15;5.93;;;;;;;;;;5071270;28;20056;-66
2023/04/24 09:00:56;;;;;;;19.05;6.10;;;;;;;;;;5069792;28;20054;-68
2023/04/24 09:03:22;;;;;;;9.70;5.28;;;;;;;;;;5053533;28;20093;-67
2023/04/24 09:05:50;;;;;;;10.63;4.75;;;;;;;;;;5053791;28;20054;-67
2023/04/24 09:08:17;;;;;;;10.73;4.80;;;;;;;;;;5048514;28;20477;-68
2023/04/24 09:10:44;;;;;;;12.68;5.80;;;;;;;;;;5039321;28;20488;-67
2023/04/24 09:13:11;;;;;;;8.60;4.05;;;;;;;;;;5071860;28;20103;-68
2023/04/24 09:15:37;;;;;;;9.55;3.58;;;;;;;;;;5071530;28;20048;-68
2023/04/24 09:18:05;;;;;;;7.40;3.10;;;;;;;;;;5071381;28;20053;-67
2023/04/24 09:20:31;;;;;;;9.98;3.25;;;;;;;;;;5069563;28;20052;-68
2023/04/24 09:22:58;;;;;;;10.68;3.78;;;;;;;;;;5036497;28;20085;-68
2023/04/24 09:25:35;;;;;;;13.10;3.90;;;;;;;;;;5042634;28;20393;-68
2023/04/24 09:28:02;;;;;;;15.00;4.15;;;;;;;;;;5070370;28;20501;-67
2023/04/24 09:30:28;;;;;;;11.43;3.67;;;;;;;;;;5067721;28;20048;-66
2023/04/24 09:33:10;;;;;;;13.20;3.95;;;;;;;;;;5037788;28;20131;-65
2023/04/24 09:35:36;;;;;;;11.27;3.78;;;;;;;;;;5070857;28;20451;-66
2023/04/24 09:38:02;;;;;;;12.02;3.10;;;;;;;;;;5069745;28;20063;-67
2023/04/24 09:40:28;;;;;;;8.65;2.83;;;;;;;;;;5067174;28;20041;-65
2023/04/24 09:43:00;;;;;;;30.38;3.10;;;;;;;;;;5035955;28;20477;-67
2023/04/24 09:45:36;;;;;;;6.57;2.50;;;;;;;;;;5053197;28;20098;-67
2023/04/24 09:48:02;;;;;;;9.18;3.03;;;;;;;;;;5053679;28;20040;-67
2023/04/24 09:50:31;;;;;;;11.70;2.70;;;;;;;;;;5069164;28;20556;-66
2023/04/24 09:53:10;;;;;;;9.13;2.33;;;;;;;;;;5070602;28;20503;-66
2023/04/24 09:55:40;;;;;;;7.88;2.22;;;;;;;;;;5073776;28;20048;-67
2023/04/24 09:58:08;;;;;;;5.20;1.92;;;;;;;;;;5057115;28;20097;-66
2023/04/24 10:00:34;;;;;;;12.20;2.58;;;;;;;;;;5073054;28;20569;-66
2023/04/24 10:03:01;;;;;;;10.95;2.30;;;;;;;;;;5073781;28;20552;-66
2023/04/24 10:05:32;;;;;;;12.05;3.00;;;;;;;;;;5039978;28;20102;-66
2023/04/24 10:08:18;;;;;;;;;;;10.00;99.90;;;;;;5075110;28;20485;-66
2023/04/24 10:10:46;;;;;;;11.63;2.45;;;;;;;;;;5038644;28;20434;-66
2023/04/24 10:13:13;;;;;;;6.57;2.28;;;;;;;;;;5040250;28;20049;-65
2023/04/24 10:15:40;;;;;;;11.35;2.70;;;;;;;;;;5056190;28;20055;-66
2023/04/24 10:18:07;;;;;;;10.40;2.00;;;;;;;;;;5054276;28;20036;-67
2023/04/24 10:20:33;;;;;;;10.40;2.90;;;;;;;;;;5068192;28;20447;-66
2023/04/24 10:23:00;;;;;;;16.48;3.70;;;;;;;;;;5115458;22;20079;-64
2023/04/24 10:25:30;;;;;;;3.90;2.03;;;;;;;;;;5071446;28;20132;-66
2023/04/24 10:27:59;;;;;;;13.20;2.42;;;;;;;;;;5053663;28;20435;-66
2023/04/24 10:30:26;;;;;;;12.32;2.95;;;;;;;;;;5073157;28;20032;-65
2023/04/24 10:32:52;;;;;;;6.80;2.03;;;;;;;;;;5073718;28;20058;-66
2023/04/24 10:35:22;;;;;;;9.38;1.55;;;;;;;;;;5072453;28;20493;-65
2023/04/24 10:37:55;;;;;;;8.02;1.75;;;;;;;;;;5073853;28;20127;-64
2023/04/24 10:40:26;;;;;;;5.93;1.40;;;;;;;;;;5055762;28;20060;-66
2023/04/24 10:42:55;;;;;;;11.90;2.92;;;;;;;;;;5071672;28;20088;-66
2023/04/24 10:45:22;;;;;;;8.48;1.63;;;;;;;;;;5055774;28;20048;-66
2023/04/24 10:47:59;;;;;;;11.18;1.80;;;;;;;;;;5073217;28;20086;-66
2023/04/24 10:50:30;;;;;;;14.82;1.92;;;;;;;;;;5037889;28;20045;-65
2023/04/24 10:53:06;;;;;;;5.10;1.15;;;;;;;;;;5048549;28;20044;-66
2023/04/24 10:55:44;;;;;;;6.50;1.70;;;;;;;;;;5049006;28;20127;-66
2023/04/24 10:58:11;;;;;;;9.38;1.35;;;;;;;;;;5041992;28;20079;-66
2023/04/24 11:00:38;;;;;;;6.43;2.17;;;;;;;;;;5053179;28;20040;-66
2023/04/24 11:03:05;;;;;;;4.22;1.73;;;;;;;;;;5073348;28;20048;-65
2023/04/24 11:06:01;;;;;;;4.85;1.13;;;11.20;99.90;;;;;;5053937;28;20128;-65
2023/04/24 11:08:31;;;;;;;6.22;1.20;;;;;;;;;;5054426;28;20052;-66
2023/04/24 11:11:02;;;;;;;7.55;1.45;;;;;;;;;;5073013;28;20045;-66
2023/04/24 11:13:48;;;;;;;8.70;1.70;;;;;;;;;;5054682;28;20048;-66
2023/04/24 11:16:15;;;;;;;5.18;1.20;;;;;;;;;;5047380;28;20128;-66
2023/04/24 11:18:45;;;;;;;7.22;1.85;;;;;;;;;;5054095;28;20504;-64
2023/04/24 11:21:17;;;;;;;6.80;1.67;;;;;;;;;;5053794;28;20053;-65
2023/04/24 11:23:43;;;;;;;7.45;1.58;;;;;;;;;;5073334;28;20060;-66
2023/04/24 11:26:12;;;;;;;7.63;1.20;;;;;;;;;;5038488;28;20095;-66
2023/04/24 11:28:44;;;;;;;6.78;1.52;;;;;;;;;;5065866;28;20110;-65
2023/04/24 11:31:29;;;;;;;7.63;1.27;;;;;;;;;;5063647;28;20045;-67
2023/04/24 11:33:55;;;;;;;7.15;1.80;;;;;;;;;;5073419;28;20473;-66
2023/04/24 11:36:21;;;;;;;4.47;1.05;;;;;;;;;;5054753;28;20091;-66
2023/04/24 11:38:47;;;;;;;5.97;1.42;;;;;;;;;;5055568;28;20485;-66
2023/04/24 11:41:13;;;;;;;5.28;1.50;;;;;;;;;;5072903;28;20055;-66
2023/04/24 11:43:40;;;;;;;5.95;1.15;;;;;;;;;;5038248;28;20124;-67
2023/04/24 11:46:06;;;;;;;8.77;1.15;;;;;;;;;;5071640;28;20044;-67
2023/04/24 11:48:36;;;;;;;4.05;0.70;;;;;;;;;;5072878;28;20131;-66
2023/04/24 11:51:02;;;;;;;6.90;2.55;;;;;;;;;;5055103;28;20097;-66
2023/04/24 11:53:28;;;;;;;3.13;0.70;;;;;;;;;;5071559;28;20044;-66
2023/04/24 11:55:54;;;;;;;2.20;0.50;;;;;;;;;;5075093;28;20054;-66
2023/04/24 11:58:23;;;;;;;6.63;1.02;;;;;;;;;;5074846;28;20507;-67
2023/04/24 12:00:56;;;;;;;4.10;1.15;;;;;;;;;;5074597;28;20127;-66
2023/04/24 12:03:22;;;;;;;3.53;0.95;;;;;;;;;;5070193;28;20064;-67
2023/04/24 12:05:48;;;;;;;4.05;0.90;;;;;;;;;;5065806;28;20154;-67
2023/04/24 12:08:28;;;;;;;5.53;1.10;;;;;;;;;;5035229;28;20491;-66
2023/04/24 12:10:54;;;;;;;3.60;0.90;;;;;;;;;;5067946;28;20039;-67
2023/04/24 12:13:20;;;;;;;2.80;0.73;;;;;;;;;;5048607;28;20493;-67
2023/04/24 12:15:46;;;;;;;2.92;0.70;;;;;;;;;;5049531;28;20474;-67
2023/04/24 12:18:13;;;;;;;4.95;1.10;;;;;;;;;;5031475;28;20060;-67
2023/04/24 12:20:40;;;;;;;3.97;0.90;;;;;;;;;;5044740;28;20398;-67
2023/04/24 12:23:06;;;;;;;5.55;1.30;;;;;;;;;;5072048;28;20455;-68
2023/04/24 12:25:33;;;;;;;4.45;0.95;;;;;;;;;;5063083;28;20052;-67
2023/04/24 12:28:05;;;;;;;3.97;0.93;;;;;;;;;;5069989;28;20053;-67
2023/04/24 12:30:32;;;;;;;7.20;1.10;;;;;;;;;;5063415;28;20064;-67
2023/04/24 12:33:00;;;;;;;3.25;0.88;;;;;;;;;;5063504;28;20048;-67
2023/04/24 12:35:27;;;;;;;7.10;1.48;;;;;;;;;;5059017;28;20048;-66
2023/04/24 12:37:54;;;;;;;7.53;1.08;;;;;;;;;;5049352;28;20493;-68
2023/04/24 12:40:20;;;;;;;3.35;0.70;;;;;;;;;;5059632;28;20044;-66
2023/04/24 12:42:50;;;;;;;4.22;0.80;;;;;;;;;;5045938;28;20040;-67
2023/04/24 12:45:17;;;;;;;2.90;0.68;;;;;;;;;;5055502;28;20048;-68
2023/04/24 12:47:44;;;;;;;4.30;0.75;;;;;;;;;;5059078;28;20558;-66
2023/04/24 12:50:11;;;;;;;1.92;0.70;;;;;;;;;;5043932;28;20036;-66
2023/04/24 12:52:38;;;;;;;2.40;0.47;;;;;;;;;;5027501;28;20043;-67
2023/04/24 12:55:07;;;;;;;4.10;0.90;;;;;;;;;;5058880;28;20044;-68
2023/04/24 12:57:33;;;;;;;7.53;0.90;;;;;;;;;;5059709;28;20059;-66
2023/04/24 12:59:59;;;;;;;3.63;0.85;;;;;;;;;;5058764;28;20075;-68
2023/04/24 13:02:27;;;;;;;8.02;1.10;;;;;;;;;;5057915;28;20040;-67
2023/04/24 13:04:54;;;;;;;4.47;1.13;;;;;;;;;;5068760;28;20489;-67
2023/04/24 13:07:20;;;;;;;6.28;1.05;;;;;;;;;;5048778;28;20177;-66
2023/04/24 13:09:46;;;;;;;4.45;1.13;;;;;;;;;;5046429;28;20132;-67
2023/04/24 13:12:12;;;;;;;6.47;1.40;;;;;;;;;;5069836;28;20787;-66
2023/04/24 13:14:39;;;;;;;7.90;1.13;;;;;;;;;;5066189;28;20082;-66
2023/04/24 13:17:05;;;;;;;6.35;1.92;;;;;;;;;;5069916;28;20072;-65
2023/04/24 13:19:36;;;;;;;9.35;1.70;;;;;;;;;;5053013;28;20048;-67
2023/04/24 13:22:02;;;;;;;5.82;2.28;;;;;;;;;;5052767;28;20059;-66
2023/04/24 13:24:28;;;;;;;7.80;1.23;;;;;;;;;;5068073;28;20056;-65
2023/04/24 13:26:54;;;;;;;9.98;1.73;;;;;;;;;;5049793;28;20052;-68
2023/04/24 13:29:20;;;;;;;9.95;1.38;;;;;;;;;;5042339;28;20053;-67
2023/04/24 13:31:54;;;;;;;5.57;1.50;;;;;;;;;;5072999;28;20086;-67
2023/04/24 13:34:20;;;;;;;9.38;1.83;;;;;;;;;;5039226;28;20041;-66
2023/04/24 13:36:46;;;;;;;9.50;2.13;;;;;;;;;;5071159;28;20115;-67
2023/04/24 13:39:12;;;;;;;6.90;1.13;;;;;;;;;;5074151;28;20052;-67
2023/04/24 13:41:39;;;;;;;7.88;2.15;;;;;;;;;;5073565;28;20412;-67
2023/04/24 13:44:05;;;;;;;8.88;1.65;;;;;;;;;;5055406;28;20056;-67
2023/04/24 13:46:31;;;;;;;8.77;1.70;;;;;;;;;;5053231;28;20094;-65
2023/04/24 13:48:58;;;;;;;11.55;1.30;;;;;;;;;;5072718;28;20079;-68
2023/04/24 13:51:26;;;;;;;8.10;1.67;;;;;;;;;;5055597;28;20719;-66
2023/04/24 13:53:52;;;;;;;14.77;2.53;;;;;;;;;;5054420;28;20048;-65
2023/04/24 13:56:18;;;;;;;5.60;1.30;;;;;;;;;;5053784;28;20115;-66
2023/04/24 13:58:44;;;;;;;8.15;2.35;;;;;;;;;;5060872;28;20124;-68
2023/04/24 14:01:10;;;;;;;10.07;3.00;;;;;;;;;;5053866;28;20071;-68
2023/04/24 14:03:38;;;;;;;11.88;3.75;;;;;;;;;;5073116;28;20048;-66
2023/04/24 14:06:04;;;;;;;4.85;1.50;;;;;;;;;;5068428;28;20064;-69
2023/04/24 14:08:30;;;;;;;27.38;3.38;;;;;;;;;;5062640;28;20044;-70
2023/04/24 14:10:56;;;;;;;14.27;2.38;;;;;;;;;;5053140;28;20507;-68
2023/04/24 14:13:23;;;;;;;12.70;2.25;;;;;;;;;;5057917;28;20127;-69
2023/04/24 14:15:49;;;;;;;13.00;2.55;;;;;;;;;;5053739;28;20382;-69
2023/04/24 14:18:15;;;;;;;8.02;1.73;;;;;;;;;;5056085;28;20489;-69
2023/04/24 14:20:41;;;;;;;10.75;2.00;;;;;;;;;;5074092;28;20044;-69
2023/04/24 14:23:07;;;;;;;10.77;2.05;;;;;;;;;;5052171;28;20084;-69
2023/04/24 14:25:33;;;;;;;10.18;1.92;;;;;;;;;;5073108;28;20080;-69
2023/04/24 14:27:59;;;;;;;7.95;1.98;;;;;;;;;;5101539;22;20084;-68
2023/04/24 14:30:25;;;;;;;11.25;3.15;;;;;;;;;;5069863;22;20084;-69
2023/04/24 14:32:51;;;;;;;9.07;1.60;;;;;;;;;;5017598;28;20045;-69
2023/04/24 14:35:17;;;;;;;11.25;2.03;;;;;;;;;;5045134;28;20053;-69